Time;durP1;ratioP1;P1;durP2;ratioP2;P2;SDS_P1;SDS_P2;PMS_P1;PMS_P2;Temp;Humidity;BMP_temperature;BMP_pressure;BME280_temperature;BME280_humidity;BME280_pressure;Samples;Min_cycle;Max_cycle;Signal;HPM_P1;HPM_P2
2022/05/28 00:02:02;;;;;;;12.20;2.00;;;;;;;;;;5094293;28;20541;-63
2022/05/28 00:04:28;;;;;;;9.98;1.50;;;;;;;;;;5094479;28;20128;-63
2022/05/28 00:06:54;;;;;;;7.35;1.42;;;;;;;;;;5092921;28;20036;-63
2022/05/28 00:09:21;;;;;;;9.95;1.90;;;;;;;;;;5089938;28;20042;-64
2022/05/28 00:11:47;;;;;;;9.82;1.83;;;;;;;;;;5092804;28;20497;-63
2022/05/28 00:14:13;;;;;;;9.13;2.10;;;;;;;;;;5093058;28;20051;-63
2022/05/28 00:16:41;;;;;;;9.98;2.03;;;;;;;;;;5092690;28;20043;-63
2022/05/28 00:19:07;;;;;;;6.43;0.95;;;;;;;;;;5094270;28;20040;-64
2022/05/28 00:21:34;;;;;;;6.88;1.25;;;;;;;;;;5090972;28;20489;-63
2022/05/28 00:24:00;;;;;;;8.43;1.30;;;;;;;;;;5093179;28;20036;-65
2022/05/28 00:26:26;;;;;;;9.02;1.30;;;;;;;;;;5089634;28;20039;-65
2022/05/28 00:28:52;;;;;;;7.43;1.23;;;;;;;;;;5089616;28;20093;-65
2022/05/28 00:31:18;;;;;;;8.48;1.38;;;;;;;;;;5092888;28;20113;-65
2022/05/28 00:33:44;;;;;;;7.63;1.30;;;;;;;;;;5090791;28;20051;-64
2022/05/28 00:36:11;;;;;;;9.25;1.10;;;;;;;;;;5099579;22;20096;-64
2022/05/28 00:38:37;;;;;;;5.97;1.30;;;;;;;;;;5066895;28;20517;-64
2022/05/28 00:41:03;;;;;;;8.13;1.90;;;;;;;;;;5052487;28;20044;-64
2022/05/28 00:43:29;;;;;;;6.03;1.55;;;;;;;;;;5064582;28;20505;-64
2022/05/28 00:46:02;;;;;;;5.85;1.20;;;;;;;;;;5058793;28;20041;-64
2022/05/28 00:48:30;;;;;;;8.50;1.35;;;;;;;;;;5033674;28;20042;-64
2022/05/28 00:50:56;;;;;;;8.38;1.30;;;;;;;;;;5046151;28;20041;-64
2022/05/28 00:53:22;;;;;;;8.27;1.60;;;;;;;;;;5040204;28;20041;-64
2022/05/28 00:55:48;;;;;;;10.43;1.58;;;;;;;;;;5035403;28;20388;-64
2022/05/28 00:58:14;;;;;;;7.05;1.27;;;;;;;;;;5038725;28;20036;-64
2022/05/28 01:00:40;;;;;;;10.30;1.42;;;;;;;;;;5052445;28;20059;-64
2022/05/28 01:03:20;;;;;;;4.85;1.23;;;;;;;;;;5035571;28;20026;-65
2022/05/28 01:05:52;;;;;;;5.20;1.13;;;;;;;;;;5040374;28;20068;-63
2022/05/28 01:08:33;;;;;;;11.23;1.98;;;;;;;;;;5026708;28;20041;-63
2022/05/28 01:11:19;;;;;;;10.98;1.60;;;;;;;;;;5048849;28;20055;-63
2022/05/28 01:13:45;;;;;;;3.38;1.08;;;;;;;;;;5036431;28;20060;-63
2022/05/28 01:16:16;;;;;;;8.68;1.25;;;;;;;;;;5043661;28;20041;-63
2022/05/28 01:18:51;;;;;;;7.68;1.27;;;;;;;;;;5049265;28;20041;-63
2022/05/28 01:21:23;;;;;;;5.90;1.20;;;;;;;;;;5038197;28;20040;-64
2022/05/28 01:23:52;;;;;;;5.70;1.10;;;;;;;;;;5041822;28;20040;-64
2022/05/28 01:26:18;;;;;;;5.53;1.08;;;;;;;;;;5050590;28;20478;-63
2022/05/28 01:28:57;;;;;;;5.20;1.48;;;;;;;;;;5043052;28;20052;-64
2022/05/28 01:31:24;;;;;;;5.10;0.93;;;;;;;;;;5052379;28;20090;-63
2022/05/28 01:33:51;;;;;;;6.18;1.27;;;;;;;;;;5022312;28;20406;-63
2022/05/28 01:36:17;;;;;;;4.97;1.00;;;;;;;;;;5041185;28;20040;-64
2022/05/28 01:38:44;;;;;;;11.90;1.00;;;;;;;;;;5050880;28;20079;-64
2022/05/28 01:41:11;;;;;;;5.95;1.20;;;;;;;;;;5040067;28;20052;-63
2022/05/28 01:43:38;;;;;;;10.88;1.38;;;;;;;;;;5032260;28;20048;-63
2022/05/28 01:46:05;;;;;;;5.85;1.00;;;;;;;;;;5040199;28;20120;-63
2022/05/28 01:48:31;;;;;;;7.65;1.27;;;;;;;;;;5041391;28;20041;-63
2022/05/28 01:50:58;;;;;;;9.57;1.40;;;;;;;;;;5049857;28;20182;-63
2022/05/28 01:56:11;;;;;;;8.57;1.40;;;;;;;;;;5026079;28;20045;-63
2022/05/28 01:58:37;;;;;;;8.05;1.60;;;;;;;;;;5034764;28;20037;-64
2022/05/28 02:01:04;;;;;;;4.68;1.20;;;;;;;;;;5045170;28;20167;-63
2022/05/28 02:03:32;;;;;;;6.45;1.50;;;;;;;;;;5049560;28;20075;-63
2022/05/28 02:05:57;;;;;;;9.15;1.50;;;;;;;;;;5044077;28;20520;-63
2022/05/28 02:08:24;;;;;;;9.23;1.38;;;;;;;;;;5051107;28;20044;-63
2022/05/28 02:10:55;;;;;;;5.60;1.10;;;;;;;;;;5048529;28;20044;-63
2022/05/28 02:13:21;;;;;;;6.65;1.67;;;;;;;;;;5040033;28;20214;-63
2022/05/28 02:15:49;;;;;;;10.20;1.40;;;;;;;;;;5036720;28;20041;-64
2022/05/28 02:18:34;;;;;;;8.80;1.40;;;;;;;;;;5037150;28;20126;-63
2022/05/28 02:21:26;;;;;;;8.63;1.30;;;;;;;;;;5045924;28;20119;-63
2022/05/28 02:23:52;;;;;;;8.85;1.50;;;;;;;;;;5018936;28;20443;-64
2022/05/28 02:26:30;;;;;;;7.40;1.35;;;;;;;;;;5037620;28;20321;-63
2022/05/28 02:28:56;;;;;;;8.60;2.13;;;;;;;;;;5015627;28;20714;-63
2022/05/28 02:31:26;;;;;;;8.15;1.65;;;;;;;;;;5046508;28;20055;-63
2022/05/28 02:33:52;;;;;;;7.23;2.17;;;;;;;;;;5046003;28;20096;-63
2022/05/28 02:36:18;;;;;;;8.05;1.50;;;;;;;;;;5044946;28;20034;-63
2022/05/28 02:38:44;;;;;;;11.18;1.40;;;;;;;;;;5045849;28;20490;-63
2022/05/28 02:41:11;;;;;;;7.35;1.30;;;;;;;;;;5050169;28;20629;-63
2022/05/28 02:43:37;;;;;;;6.75;1.40;;;;;;;;;;5041326;28;20040;-63
2022/05/28 02:46:04;;;;;;;7.07;1.50;;;;;;;;;;5030994;28;20037;-63
2022/05/28 02:48:30;;;;;;;6.43;1.30;;;;;;;;;;5047519;28;20033;-63
2022/05/28 02:51:10;;;;;;;4.00;1.05;;;;;;;;;;5021339;28;20471;-63
2022/05/28 02:53:36;;;;;;;9.05;1.45;;;;;;;;;;5049937;28;20410;-63
2022/05/28 02:56:02;;;;;;;10.90;1.98;;;;;;;;;;5039737;28;20051;-63
2022/05/28 02:58:29;;;;;;;10.88;1.70;;;;;;;;;;5042682;28;20045;-63
2022/05/28 03:00:56;;;;;;;5.90;1.30;;;;;;;;;;5044778;28;20525;-63
2022/05/28 03:03:22;;;;;;;8.05;1.75;;;;;;;;;;5041109;28;20288;-63
2022/05/28 03:05:49;;;;;;;10.32;1.42;;;;;;;;;;5048934;28;20025;-63
2022/05/28 03:08:15;;;;;;;8.00;2.00;;;;;;;;;;5053140;28;20041;-63
2022/05/28 03:10:41;;;;;;;8.98;1.50;;;;;;;;;;5052620;28;20120;-63
2022/05/28 03:13:07;;;;;;;9.00;1.60;;;;;;;;;;5039257;28;20111;-64
2022/05/28 03:15:33;;;;;;;5.95;1.50;;;;;;;;;;5045023;28;20475;-64
2022/05/28 03:18:02;;;;;;;10.15;1.75;;;;;;;;;;5046981;28;20037;-64
2022/05/28 03:20:28;;;;;;;7.07;1.40;;;;;;;;;;5047792;28;20082;-63
2022/05/28 03:22:54;;;;;;;5.57;1.50;;;;;;;;;;5038369;28;20049;-63
2022/05/28 03:25:20;;;;;;;6.55;1.20;;;;;;;;;;5045749;28;20036;-63
2022/05/28 03:27:46;;;;;;;11.88;1.73;;;;;;;;;;5046057;28;20037;-64
2022/05/28 03:30:13;;;;;;;7.57;1.67;;;;;;;;;;5046084;28;20415;-64
2022/05/28 03:32:39;;;;;;;7.10;1.33;;;;;;;;;;5043978;28;20033;-63
2022/05/28 03:35:05;;;;;;;5.82;1.45;;;;;;;;;;5035172;28;20517;-63
2022/05/28 03:37:31;;;;;;;6.85;1.50;;;;;;;;;;5045123;28;20047;-63
2022/05/28 03:39:57;;;;;;;6.40;1.63;;;;;;;;;;5045936;28;20074;-63
2022/05/28 03:42:23;;;;;;;11.43;1.48;;;;;;;;;;5041833;28;20033;-64
2022/05/28 03:44:49;;;;;;;12.85;2.22;;;;;;;;;;5052882;28;20044;-64
2022/05/28 03:47:15;;;;;;;9.90;1.60;;;;;;;;;;5047053;28;20034;-63
2022/05/28 03:49:42;;;;;;;8.43;1.70;;;;;;;;;;5053216;28;20029;-64
2022/05/28 03:52:08;;;;;;;5.43;1.50;;;;;;;;;;5042335;28;20037;-63
2022/05/28 03:54:35;;;;;;;8.85;1.50;;;;;;;;;;5038371;28;20116;-63
2022/05/28 03:57:04;;;;;;;12.13;1.92;;;;;;;;;;5043990;28;20513;-63
2022/05/28 03:59:30;;;;;;;5.95;1.38;;;;;;;;;;5041495;28;20103;-64
2022/05/28 04:01:56;;;;;;;5.05;1.70;;;;;;;;;;5045429;28;20052;-63
2022/05/28 04:04:22;;;;;;;8.50;1.33;;;;;;;;;;5052388;28;20119;-63
2022/05/28 04:06:48;;;;;;;10.27;1.42;;;;;;;;;;5050222;28;20094;-63
2022/05/28 04:09:14;;;;;;;10.70;1.60;;;;;;;;;;5042370;28;20663;-63
2022/05/28 04:11:40;;;;;;;11.77;1.80;;;;;;;;;;5050137;28;20083;-63
2022/05/28 04:14:06;;;;;;;7.43;1.70;;;;;;;;;;5052568;28;20037;-63
2022/05/28 04:16:33;;;;;;;9.65;1.85;;;;;;;;;;5033541;28;20081;-63
2022/05/28 04:18:59;;;;;;;6.75;1.60;;;;;;;;;;5038190;28;20128;-63
2022/05/28 04:21:25;;;;;;;6.93;1.70;;;;;;;;;;5051557;28;20037;-63
2022/05/28 04:23:51;;;;;;;10.55;2.00;;;;;;;;;;5045148;28;20118;-63
2022/05/28 04:26:17;;;;;;;10.73;1.85;;;;;;;;;;5045998;28;20432;-64
2022/05/28 04:28:43;;;;;;;7.78;1.70;;;;;;;;;;5041681;28;20045;-63
2022/05/28 04:31:09;;;;;;;9.80;2.03;;;;;;;;;;5047097;28;20517;-63
2022/05/28 04:33:35;;;;;;;6.88;1.40;;;;;;;;;;5044174;28;20045;-63
2022/05/28 04:36:00;;;;;;;5.03;1.40;;;;;;;;;;5046746;28;20040;-63
2022/05/28 04:38:27;;;;;;;7.40;1.60;;;;;;;;;;5044416;28;20052;-63
2022/05/28 04:40:54;;;;;;;6.22;1.70;;;;;;;;;;5034972;28;20082;-64
2022/05/28 04:43:20;;;;;;;10.85;1.48;;;;;;;;;;5035918;28;20055;-64
2022/05/28 04:45:46;;;;;;;10.35;2.22;;;;;;;;;;5044657;28;20033;-63
2022/05/28 04:48:12;;;;;;;12.63;2.13;;;;;;;;;;5051400;28;20330;-64
2022/05/28 04:50:38;;;;;;;10.77;1.85;;;;;;;;;;5040662;28;20029;-64
2022/05/28 04:53:04;;;;;;;5.75;1.80;;;;;;;;;;5049047;28;20056;-63
2022/05/28 04:55:31;;;;;;;12.32;1.75;;;;;;;;;;5038602;28;20035;-63
2022/05/28 04:57:57;;;;;;;8.90;2.15;;;;;;;;;;5037081;28;20029;-63
2022/05/28 05:00:23;;;;;;;10.90;2.13;;;;;;;;;;5047074;28;20033;-63
2022/05/28 05:02:49;;;;;;;11.70;2.85;;;;;;;;;;5026429;28;20509;-63
2022/05/28 05:05:15;;;;;;;9.43;1.92;;;;;;;;;;5047809;28;20037;-63
2022/05/28 05:07:41;;;;;;;12.48;2.03;;;;;;;;;;5036168;28;20037;-63
2022/05/28 05:10:08;;;;;;;7.60;1.42;;;;;;;;;;5034571;28;20037;-63
2022/05/28 05:12:34;;;;;;;13.45;1.80;;;;;;;;;;5036440;28;20044;-63
2022/05/28 05:15:00;;;;;;;12.82;2.58;;;;;;;;;;5042726;28;20043;-63
2022/05/28 05:17:26;;;;;;;11.05;2.13;;;;;;;;;;5017704;28;20407;-63
2022/05/28 05:19:53;;;;;;;9.82;2.00;;;;;;;;;;5040703;28;20076;-63
2022/05/28 05:22:19;;;;;;;8.43;1.80;;;;;;;;;;5047728;28;20120;-63
2022/05/28 05:24:45;;;;;;;10.60;1.95;;;;;;;;;;5032315;28;20052;-63
2022/05/28 05:27:12;;;;;;;12.85;1.95;;;;;;;;;;5048295;28;20037;-63
2022/05/28 05:29:38;;;;;;;8.13;1.98;;;;;;;;;;5040718;28;20403;-63
2022/05/28 05:32:05;;;;;;;11.25;2.13;;;;;;;;;;5015467;28;20102;-63
2022/05/28 05:34:31;;;;;;;12.35;1.80;;;;;;;;;;5045575;28;20693;-63
2022/05/28 05:36:57;;;;;;;13.05;1.95;;;;;;;;;;5036153;28;20126;-63
2022/05/28 05:39:23;;;;;;;13.60;2.38;;;;;;;;;;5036381;28;20379;-63
2022/05/28 05:41:49;;;;;;;9.48;1.80;;;;;;;;;;5049246;28;20044;-63
2022/05/28 05:44:16;;;;;;;6.03;1.60;;;;;;;;;;5043356;28;20040;-63
2022/05/28 05:46:43;;;;;;;12.40;2.00;;;;;;;;;;5040854;28;20383;-63
2022/05/28 05:49:10;;;;;;;11.00;1.88;;;;;;;;;;5041898;28;20040;-63
2022/05/28 05:51:43;;;;;;;7.50;1.90;;;;;;;;;;5036928;28;20120;-63
2022/05/28 05:54:10;;;;;;;8.65;1.85;;;;;;;;;;5039833;28;20494;-63
2022/05/28 05:56:36;;;;;;;13.10;2.65;;;;;;;;;;5025761;28;20045;-63
2022/05/28 05:59:02;;;;;;;10.75;2.08;;;;;;;;;;5040503;28;20052;-63
2022/05/28 06:01:28;;;;;;;13.18;1.77;;;;;;;;;;5043735;28;20060;-63
2022/05/28 06:03:54;;;;;;;10.18;2.35;;;;;;;;;;5047599;28;20421;-63
2022/05/28 06:06:21;;;;;;;12.77;1.70;;;;;;;;;;5044974;28;20029;-63
2022/05/28 06:08:47;;;;;;;14.90;3.13;;;;;;;;;;5037285;28;20047;-63
2022/05/28 06:11:13;;;;;;;10.77;2.00;;;;;;;;;;5048441;28;20064;-63
2022/05/28 06:13:39;;;;;;;15.77;2.20;;;;;;;;;;5042132;28;20083;-63
2022/05/28 06:16:05;;;;;;;14.07;2.60;;;;;;;;;;5035345;28;20062;-64
2022/05/28 06:18:32;;;;;;;12.20;2.72;;;;;;;;;;5035655;28;20569;-64
2022/05/28 06:20:59;;;;;;;14.23;2.38;;;;;;;;;;5040317;28;20083;-63
2022/05/28 06:23:25;;;;;;;14.32;2.22;;;;;;;;;;5046157;28;20541;-63
2022/05/28 06:25:51;;;;;;;11.75;2.38;;;;;;;;;;5039181;28;20041;-63
2022/05/28 06:28:17;;;;;;;10.15;2.42;;;;;;;;;;5045344;28;20059;-64
2022/05/28 06:30:44;;;;;;;10.32;1.90;;;;;;;;;;5040503;28;20480;-64
2022/05/28 06:33:11;;;;;;;13.60;2.00;;;;;;;;;;5045119;28;20045;-64
2022/05/28 06:35:37;;;;;;;12.77;2.22;;;;;;;;;;5044192;28;20041;-64
2022/05/28 06:38:03;;;;;;;11.73;2.25;;;;;;;;;;5096999;22;20047;-61
2022/05/28 06:40:29;;;;;;;7.30;1.52;;;;;;;;;;5104799;28;20034;-62
2022/05/28 06:42:56;;;;;;;6.80;1.90;;;;;;;;;;5092364;28;20123;-62
2022/05/28 06:45:22;;;;;;;7.20;1.50;;;;;;;;;;5100457;28;20039;-61
2022/05/28 06:47:48;;;;;;;7.68;2.25;;;;;;;;;;5087265;28;20543;-62
2022/05/28 06:53:00;;;;;;;8.05;1.92;;;;;;;;;;5078484;28;20044;-62
2022/05/28 06:55:27;;;;;;;9.40;1.95;;;;;;;;;;5078828;28;20044;-62
2022/05/28 06:57:53;;;;;;;10.10;1.70;;;;;;;;;;5088518;28;20044;-63
2022/05/28 07:00:19;;;;;;;6.47;1.45;;;;;;;;;;5078324;28;20119;-63
2022/05/28 07:02:45;;;;;;;7.57;1.95;;;;;;;;;;5089198;28;20044;-62
2022/05/28 07:05:12;;;;;;;10.20;2.35;;;;;;;;;;5080200;28;20036;-62
2022/05/28 07:07:38;;;;;;;10.82;1.80;;;;;;;;;;5082214;28;20024;-63
2022/05/28 07:10:04;;;;;;;11.77;2.15;;;;;;;;;;5073221;28;20055;-62
2022/05/28 07:12:30;;;;;;;9.65;2.28;;;;;;;;;;5075505;28;20512;-62
2022/05/28 07:14:56;;;;;;;10.80;2.05;;;;;;;;;;5089169;28;20047;-62
2022/05/28 07:17:22;;;;;;;9.23;2.28;;;;;;;;;;5090106;28;20122;-62
2022/05/28 07:19:49;;;;;;;5.85;1.70;;;;;;;;;;5086825;28;20040;-62
2022/05/28 07:22:15;;;;;;;10.55;2.50;;;;;;;;;;5079899;28;20634;-62
2022/05/28 07:24:41;;;;;;;7.60;1.88;;;;;;;;;;5083331;28;20032;-63
2022/05/28 07:27:07;;;;;;;11.00;2.00;;;;;;;;;;5080838;28;20036;-62
2022/05/28 07:29:33;;;;;;;7.28;1.73;;;;;;;;;;5091077;28;20063;-63
2022/05/28 07:31:59;;;;;;;8.82;1.90;;;;;;;;;;5079778;28;20527;-63
2022/05/28 07:34:25;;;;;;;7.43;2.08;;;;;;;;;;5072901;28;20050;-59
2022/05/28 07:36:51;;;;;;;9.30;1.95;;;;;;;;;;5078402;28;20043;-59
2022/05/28 07:39:17;;;;;;;8.90;1.92;;;;;;;;;;5080865;28;20041;-60
2022/05/28 07:41:43;;;;;;;6.60;1.98;;;;;;;;;;5083823;28;20032;-60
2022/05/28 07:44:09;;;;;;;9.45;2.05;;;;;;;;;;5083663;28;20115;-60
2022/05/28 07:46:35;;;;;;;11.20;2.15;;;;;;;;;;5082006;28;20553;-59
2022/05/28 07:49:04;;;;;;;9.15;2.65;;;;;;;;;;5087065;28;20040;-60
2022/05/28 07:51:30;;;;;;;5.90;1.88;;;;;;;;;;5081319;28;20036;-60
2022/05/28 07:53:57;;;;;;;5.93;1.60;;;;;;;;;;5085662;28;20062;-60
2022/05/28 07:56:23;;;;;;;7.47;2.10;;;;;;;;;;5086200;28;20051;-59
2022/05/28 07:58:54;;;;;;;6.88;1.58;;;;;;;;;;5086774;28;20044;-60
2022/05/28 08:01:22;;;;;;;5.68;2.17;;;;;;;;;;5088014;28;20044;-60
2022/05/28 08:03:48;;;;;;;8.75;2.25;;;;;;;;;;5083860;28;20439;-60
2022/05/28 08:06:15;;;;;;;4.75;1.40;;;;;;;;;;5092134;28;20061;-60
2022/05/28 08:08:41;;;;;;;7.85;2.00;;;;;;;;;;5085057;28;20562;-60
2022/05/28 08:11:08;;;;;;;7.13;1.95;;;;;;;;;;5083399;28;20143;-60
2022/05/28 08:13:34;;;;;;;10.02;1.80;;;;;;;;;;5088314;28;20054;-60
2022/05/28 08:16:01;;;;;;;4.25;1.33;;;;;;;;;;5086150;28;20032;-60
2022/05/28 08:18:27;;;;;;;7.97;2.28;;;;;;;;;;5080114;28;20058;-60
2022/05/28 08:23:40;;;;;;;10.60;2.10;;;;;;;;;;5083862;28;20118;-60
2022/05/28 08:26:06;;;;;;;11.48;2.35;;;;;;;;;;5079145;28;20032;-60
2022/05/28 08:28:33;;;;;;;8.65;2.42;;;;;;;;;;5082759;28;20050;-60
2022/05/28 08:30:58;;;;;;;13.25;2.80;;;;;;;;;;5083299;28;20120;-60
2022/05/28 08:33:24;;;;;;;11.40;2.33;;;;;;;;;;5081264;28;20463;-60
2022/05/28 08:35:51;;;;;;;8.90;2.03;;;;;;;;;;5084577;28;20086;-60
2022/05/28 08:38:18;;;;;;;11.13;2.38;;;;;;;;;;5082464;28;20130;-60
2022/05/28 08:40:50;;;;;;;8.75;2.67;;;;;;;;;;5082864;28;20139;-60
2022/05/28 08:43:15;;;;;;;;;;;;;;;;;;5083369;28;20032;-60
2022/05/28 08:45:43;;;;;;;11.38;2.03;;;;;;;;;;5085942;28;19923;-61
2022/05/28 08:48:09;;;;;;;10.95;2.40;;;;;;;;;;5081014;28;20048;-60
2022/05/28 08:50:43;;;;;;;16.23;2.40;;;;;;;;;;5088073;28;20084;-60
2022/05/28 08:53:15;;;;;;;12.68;2.72;;;;;;;;;;5088222;28;20070;-60
2022/05/28 08:55:43;;;;;;;9.02;2.35;;;;;;;;;;5083896;28;20029;-60
2022/05/28 08:58:11;;;;;;;15.45;2.65;;;;;;;;;;5090038;28;20042;-60
2022/05/28 09:00:48;;;;;;;11.82;2.75;;;;;;;;;;5091222;28;20036;-60
2022/05/28 09:03:16;;;;;;;11.57;2.28;;;;;;;;;;5091226;28;20040;-60
2022/05/28 09:05:44;;;;;;;12.93;2.58;;;;;;;;;;5086736;28;20074;-60
2022/05/28 09:08:10;;;;;;;10.73;2.05;;;;;;;;;;5086380;28;20119;-60
2022/05/28 09:10:41;;;;;;;11.52;2.75;;;;;;;;;;5081497;28;20485;-60
2022/05/28 09:13:12;;;;;;;11.73;2.50;;;;;;;;;;5075637;28;20037;-60
2022/05/28 09:15:38;;;;;;;10.65;2.45;;;;;;;;;;5075500;28;20547;-59
2022/05/28 09:18:06;;;;;;;11.65;2.60;;;;;;;;;;5083528;28;20115;-60
2022/05/28 09:20:40;;;;;;;14.80;2.55;;;;;;;;;;5092578;28;20075;-59
2022/05/28 09:23:06;;;;;;;14.45;2.38;;;;;;;;;;5088455;28;20068;-60
2022/05/28 09:25:35;;;;;;;9.93;2.20;;;;;;;;;;5082190;28;20087;-59
2022/05/28 09:28:11;;;;;;;14.68;3.35;;;;;;;;;;5082202;28;20043;-59
2022/05/28 09:30:53;;;;;;;14.10;2.42;;;;;;;;;;5088828;28;20444;-60
2022/05/28 09:33:33;;;;;;;14.00;2.50;;;;;;;;;;5083605;28;20042;-60
2022/05/28 09:36:20;;;;;;;11.00;2.28;;;;;;;;;;5083107;28;20051;-59
2022/05/28 09:39:05;;;;;;;16.98;3.20;;;;;;;;;;5082706;28;20097;-59
2022/05/28 09:41:31;;;;;;;14.00;2.30;;;;;;;;;;5080288;28;20032;-59
2022/05/28 09:43:57;;;;;;;10.63;2.25;;;;;;;;;;5083424;28;20037;-59
2022/05/28 09:46:29;;;;;;;9.55;2.30;;;;;;;;;;5078771;28;20448;-59
2022/05/28 09:49:10;;;;;;;10.98;2.45;;;;;;;;;;5073752;28;20036;-60
2022/05/28 09:51:36;;;;;;;10.20;2.10;;;;;;;;;;5072145;28;20059;-60
2022/05/28 09:54:17;;;;;;;11.73;2.75;;;;;;;;;;5087819;28;20795;-59
2022/05/28 09:56:45;;;;;;;9.75;2.05;;;;;;;;;;5088299;28;20036;-59
2022/05/28 09:59:27;;;;;;;10.38;2.50;;;;;;;;;;5080502;28;20047;-59
2022/05/28 10:01:56;;;;;;;13.93;2.20;;;;;;;;;;5074571;28;20040;-59
2022/05/28 10:04:28;;;;;;;14.02;2.22;;;;;;;;;;5073405;28;20043;-59
2022/05/28 10:06:56;;;;;;;11.07;2.30;;;;;;;;;;5081017;28;20595;-59
2022/05/28 10:09:26;;;;;;;10.82;2.25;;;;;;;;;;5087878;28;20574;-59
2022/05/28 10:11:58;;;;;;;10.43;2.55;;;;;;;;;;5087521;28;20075;-59
2022/05/28 10:14:28;;;;;;;10.35;2.17;;;;;;;;;;5084608;28;20040;-59
2022/05/28 10:16:54;;;;;;;8.05;1.98;;;;;;;;;;5082527;28;20098;-59
2022/05/28 10:19:26;;;;;;;10.15;2.20;;;;;;;;;;5073354;28;20486;-59
2022/05/28 10:21:54;;;;;;;11.73;2.30;;;;;;;;;;5080981;28;20051;-59
2022/05/28 10:24:22;;;;;;;12.20;2.25;;;;;;;;;;5091244;28;20039;-59
2022/05/28 10:26:54;;;;;;;11.52;2.20;;;;;;;;;;5066504;28;20040;-59
2022/05/28 10:29:29;;;;;;;10.43;1.83;;;;;;;;;;5085039;28;20444;-59
2022/05/28 10:31:57;;;;;;;11.63;2.53;;;;;;;;;;5081241;28;20071;-59
2022/05/28 10:34:23;;;;;;;16.23;2.17;;;;;;;;;;5083371;28;20524;-59
2022/05/28 10:36:49;;;;;;;15.32;3.08;;;;;;;;;;5074475;28;20063;-59
2022/05/28 10:39:18;;;;;;;11.02;2.55;;;;;;;;;;5075725;28;20048;-60
2022/05/28 10:41:44;;;;;;;13.25;2.28;;;;;;;;;;5071572;28;20391;-60
2022/05/28 10:44:15;;;;;;;12.85;2.10;;;;;;;;;;5077935;28;20083;-60
2022/05/28 10:46:42;;;;;;;;;;;;;;;;;;5088065;28;20043;-59
2022/05/28 10:49:15;;;;;;;13.38;2.35;;;;;;;;;;5078080;28;19969;-59
2022/05/28 10:51:56;;;;;;;11.95;2.53;;;;;;;;;;5083102;28;20085;-59
2022/05/28 10:54:42;;;;;;;15.73;2.72;;;;;;;;;;5072609;28;20048;-60
2022/05/28 10:57:29;;;;;;;13.15;2.20;;;;;;;;;;5079928;28;20048;-59
2022/05/28 11:00:02;;;;;;;17.85;2.55;;;;;;;;;;5090462;28;20131;-60
2022/05/28 11:02:31;;;;;;;8.02;1.92;;;;;;;;;;5088988;28;20047;-60
2022/05/28 11:05:06;;;;;;;12.77;2.80;;;;;;;;;;5076400;28;20123;-59
2022/05/28 11:07:35;;;;;;;13.02;2.10;;;;;;;;;;5083701;28;20038;-59
2022/05/28 11:10:01;;;;;;;11.57;2.10;;;;;;;;;;5082241;28;20135;-59
2022/05/28 11:12:36;;;;;;;10.80;2.63;;;;;;;;;;5082083;28;20274;-59
2022/05/28 11:15:02;;;;;;;7.85;2.10;;;;;;;;;;5081062;28;20043;-59
2022/05/28 11:17:43;;;;;;;10.00;2.08;;;;;;;;;;5079506;28;20036;-59
2022/05/28 11:20:19;;;;;;;14.80;2.10;;;;;;;;;;5077933;28;20032;-59
2022/05/28 11:22:48;;;;;;;12.20;1.90;;;;;;;;;;5079268;28;20044;-59
2022/05/28 11:25:26;;;;;;;8.38;2.08;;;;;;;;;;5081491;28;20024;-59
2022/05/28 11:27:57;;;;;;;11.07;2.95;;;;;;;;;;5085558;28;20043;-59
2022/05/28 11:30:26;;;;;;;7.65;1.80;;;;;;;;;;5085101;28;20441;-59
2022/05/28 11:33:04;;;;;;;12.48;1.98;;;;;;;;;;5092445;28;20043;-60
2022/05/28 11:35:42;;;;;;;10.93;2.30;;;;;;;;;;5087558;28;20115;-60
2022/05/28 11:38:13;;;;;;;9.65;1.83;;;;;;;;;;5090732;28;20525;-59
2022/05/28 11:40:47;;;;;;;6.85;1.92;;;;;;;;;;5085657;28;20032;-58
2022/05/28 11:43:15;;;;;;;8.57;2.33;;;;;;;;;;5085891;28;20118;-59
2022/05/28 11:46:00;;;;;;;6.88;1.92;;;;;;;;;;5079996;28;20106;-59
2022/05/28 11:51:27;;;;;;;14.15;2.38;;;;;;;;;;5083413;28;20028;-59
2022/05/28 11:51:29;;;;;;;9.63;1.88;;;;;;;;;;5082421;28;20073;-59
2022/05/28 11:54:06;;;;;;;8.30;1.85;;;;;;;;;;5089449;28;20044;-59
2022/05/28 11:56:32;;;;;;;7.90;2.00;;;;;;;;;;5091132;28;20196;-60
2022/05/28 11:59:02;;;;;;;9.75;2.30;;;;;;;;;;5083798;28;20094;-60
2022/05/28 12:01:30;;;;;;;11.13;2.38;;;;;;;;;;5089880;28;20028;-59
2022/05/28 12:03:57;;;;;;;6.03;1.35;;;;;;;;;;5080442;28;20028;-59
2022/05/28 12:06:31;;;;;;;7.32;1.58;;;;;;;;;;5091655;28;20516;-60
2022/05/28 12:09:02;;;;;;;6.70;1.48;;;;;;;;;;5083836;28;20073;-60
2022/05/28 12:11:31;;;;;;;7.32;1.77;;;;;;;;;;5079806;28;20106;-60
2022/05/28 12:13:58;;;;;;;9.55;1.63;;;;;;;;;;5088979;28;20086;-60
2022/05/28 12:16:31;;;;;;;7.60;1.60;;;;;;;;;;5088695;28;20045;-60
2022/05/28 12:19:15;;;;;;;6.82;1.60;;;;;;;;;;5079446;28;20041;-60
2022/05/28 12:21:43;;;;;;;5.43;1.58;;;;;;;;;;5076445;28;20505;-60
2022/05/28 12:24:11;;;;;;;11.27;1.90;;;;;;;;;;5092932;28;20481;-60
2022/05/28 12:29:37;;;;;;;8.60;1.85;;;;;;;;;;5081696;28;20534;-60
2022/05/28 12:32:10;;;;;;;9.67;1.80;;;;;;;;;;5088765;28;20451;-60
2022/05/28 12:34:39;;;;;;;9.13;2.15;;;;;;;;;;5081942;28;20036;-59
2022/05/28 12:37:33;;;;;;;;;;;;;;;;;;;;;
2022/05/28 12:40:18;;;;;;;7.05;2.22;;;;;;;;;;5053048;28;20048;-62
2022/05/28 12:42:44;;;;;;;9.98;2.45;;;;;;;;;;5082650;28;20050;-62
2022/05/28 12:45:12;;;;;;;8.38;1.98;;;;;;;;;;5080095;28;21600;-63
2022/05/28 12:47:38;;;;;;;10.55;2.15;;;;;;;;;;5073307;28;20028;-62
2022/05/28 12:50:22;;;;;;;9.27;2.03;;;;;;;;;;5071742;28;20048;-64
2022/05/28 12:52:53;;;;;;;9.07;1.92;;;;;;;;;;5072398;28;20047;-63
2022/05/28 12:55:36;;;;;;;10.30;2.55;;;;;;;;;;5071919;28;20567;-64
2022/05/28 12:58:05;;;;;;;12.90;2.22;;;;;;;;;;5066252;28;20044;-64
2022/05/28 13:00:36;;;;;;;12.45;2.35;;;;;;;;;;5058444;28;20029;-64
2022/05/28 13:03:05;;;;;;;15.65;2.70;;;;;;;;;;5062654;28;20482;-64
2022/05/28 13:05:41;;;;;;;8.63;1.60;;;;;;;;;;5062668;28;20044;-64
2022/05/28 13:08:12;;;;;;;11.10;2.13;;;;;;;;;;5058024;28;20048;-64
2022/05/28 13:10:44;;;;;;;10.23;1.80;;;;;;;;;;5044261;28;20036;-63
2022/05/28 13:13:16;;;;;;;8.80;1.80;;;;;;;;;;5058555;28;20044;-64
2022/05/28 13:15:55;;;;;;;7.35;1.60;;;;;;;;;;5068630;28;20048;-65
2022/05/28 13:18:36;;;;;;;6.97;1.63;;;;;;;;;;5065873;28;20048;-65
2022/05/28 13:21:20;;;;;;;6.95;1.98;;;;;;;;;;5070418;28;20421;-65
2022/05/28 13:23:46;;;;;;;5.88;1.48;;;;;;;;;;5068362;28;20049;-64
2022/05/28 13:26:36;;;;;;;7.07;1.67;;;;;;;;;;5062230;28;20110;-65
2022/05/28 13:29:17;;;;;;;6.32;1.50;;;;;;;;;;5065134;28;20078;-64
2022/05/28 13:31:43;;;;;;;;;;;;;;;;;;5060195;28;20097;-61
2022/05/28 13:34:26;;;;;;;8.68;1.90;;;;;;;;;;5059145;28;19928;-62
2022/05/28 13:36:52;;;;;;;10.23;2.20;;;;;;;;;;5062860;28;20448;-61
2022/05/28 13:39:19;;;;;;;7.30;1.58;;;;;;;;;;5066360;28;20458;-62
2022/05/28 13:41:45;;;;;;;13.27;2.03;;;;;;;;;;5070279;28;20127;-62
2022/05/28 13:44:14;;;;;;;10.88;2.25;;;;;;;;;;5061458;28;20112;-62
2022/05/28 13:46:45;;;;;;;10.60;1.83;;;;;;;;;;5064146;28;20033;-62
2022/05/28 13:49:11;;;;;;;13.40;2.33;;;;;;;;;;5065234;28;20036;-64
2022/05/28 13:51:37;;;;;;;12.65;2.00;;;;;;;;;;5071924;28;20036;-65
2022/05/28 13:54:07;;;;;;;11.82;2.15;;;;;;;;;;5068608;28;20078;-65
2022/05/28 13:56:34;;;;;;;10.48;2.20;;;;;;;;;;5072978;28;20037;-64
2022/05/28 13:59:00;;;;;;;11.18;2.20;;;;;;;;;;5064769;28;20043;-64
2022/05/28 14:01:29;;;;;;;9.55;2.05;;;;;;;;;;5068398;28;20036;-64
2022/05/28 14:03:55;;;;;;;13.43;2.42;;;;;;;;;;5068809;28;20497;-64
2022/05/28 14:06:25;;;;;;;13.20;2.13;;;;;;;;;;5070000;28;20090;-64
2022/05/28 14:08:52;;;;;;;9.07;2.83;;;;;;;;;;5071210;28;20044;-64
2022/05/28 14:11:30;;;;;;;11.15;2.40;;;;;;;;;;5066518;28;20036;-64
2022/05/28 14:14:00;;;;;;;9.68;2.15;;;;;;;;;;5068901;28;20519;-64
2022/05/28 14:16:27;;;;;;;8.25;2.00;;;;;;;;;;5067836;28;20040;-64
2022/05/28 14:18:55;;;;;;;7.18;1.60;;;;;;;;;;5061800;28;20048;-64
2022/05/28 14:21:24;;;;;;;9.40;1.70;;;;;;;;;;5071147;28;20044;-64
2022/05/28 14:23:50;;;;;;;4.60;1.20;;;;;;;;;;5070337;28;20048;-63
2022/05/28 14:26:17;;;;;;;8.50;1.60;;;;;;;;;;5070511;28;20036;-63
2022/05/28 14:28:45;;;;;;;7.55;1.52;;;;;;;;;;5066122;28;20044;-63
2022/05/28 14:31:12;;;;;;;6.63;1.33;;;;;;;;;;5060629;28;20040;-63
2022/05/28 14:33:40;;;;;;;4.28;1.30;;;;;;;;;;5070552;28;20044;-63
2022/05/28 14:36:26;;;;;;;7.18;1.17;;;;;;;;;;5067745;28;20052;-63
2022/05/28 14:38:52;;;;;;;7.53;1.33;;;;;;;;;;5068378;28;20075;-63
2022/05/28 14:41:18;;;;;;;5.60;1.20;;;;;;;;;;5068050;28;20041;-63
2022/05/28 14:43:53;;;;;;;5.93;1.10;;;;;;;;;;5068833;28;20033;-63
2022/05/28 14:46:27;;;;;;;6.25;1.15;;;;;;;;;;5052961;28;20375;-63
2022/05/28 14:49:02;;;;;;;6.25;1.13;;;;;;;;;;5067485;28;20571;-64
2022/05/28 14:51:34;;;;;;;8.43;1.67;;;;;;;;;;5065684;28;20068;-64
2022/05/28 14:54:00;;;;;;;8.93;1.30;;;;;;;;;;5067294;28;20115;-64
2022/05/28 14:56:31;;;;;;;6.30;1.20;;;;;;;;;;5068057;28;20047;-64
2022/05/28 14:58:57;;;;;;;6.95;1.15;;;;;;;;;;5069974;28;20047;-64
2022/05/28 15:01:34;;;;;;;6.90;1.38;;;;;;;;;;5070587;28;20540;-65